createdAt,value
2018-06-03T00:00:10.605Z,49.06
2018-06-03T00:02:36.604Z,49.06
2018-06-03T00:05:02.603Z,49.07
2018-06-03T00:07:28.598Z,49.05
2018-06-03T00:09:54.589Z,49.05
2018-06-03T00:12:20.597Z,49.05
2018-06-03T00:14:46.589Z,49.04
2018-06-03T00:17:12.586Z,49.04
2018-06-03T00:19:38.586Z,49.04
2018-06-03T00:22:04.584Z,49.03
2018-06-03T00:24:30.586Z,49.02
2018-06-03T00:26:56.643Z,49.02
2018-06-03T00:29:22.607Z,49.03
2018-06-03T00:31:48.593Z,49.03
2018-06-03T00:34:14.597Z,49.03
2018-06-03T00:36:40.603Z,49.01
2018-06-03T00:39:06.598Z,49.01
2018-06-03T00:41:32.590Z,49.00
2018-06-03T00:43:58.591Z,48.99
2018-06-03T00:46:24.584Z,49.01
2018-06-03T00:48:50.577Z,49.00
2018-06-03T00:51:16.577Z,49.00
2018-06-03T00:53:42.577Z,48.99
2018-06-03T00:56:08.568Z,49.00
2018-06-03T00:58:34.569Z,48.99
2018-06-03T01:01:00.567Z,49.00
2018-06-03T01:03:26.561Z,49.01
2018-06-03T01:05:52.573Z,49.00
2018-06-03T01:08:18.570Z,49.00
2018-06-03T01:10:44.569Z,48.98
2018-06-03T01:13:10.597Z,48.99
2018-06-03T01:15:36.594Z,48.98
2018-06-03T01:18:02.597Z,48.98
2018-06-03T01:20:28.598Z,48.98
2018-06-03T01:22:54.603Z,48.98
2018-06-03T01:25:20.602Z,48.98
2018-06-03T01:27:46.634Z,48.97
2018-06-03T01:30:12.630Z,48.98
2018-06-03T01:32:38.631Z,48.98
2018-06-03T01:35:04.631Z,48.97
2018-06-03T01:37:30.625Z,48.99
2018-06-03T01:39:56.621Z,48.98
2018-06-03T01:42:22.615Z,48.97
2018-06-03T01:44:48.611Z,48.97
2018-06-03T01:47:14.612Z,48.97
2018-06-03T01:49:40.708Z,48.96
2018-06-03T01:52:06.698Z,48.95
2018-06-03T01:54:32.700Z,48.95
2018-06-03T01:56:58.693Z,48.95
2018-06-03T01:59:24.686Z,48.93
2018-06-03T02:01:50.690Z,48.93
2018-06-03T02:04:16.688Z,48.93
2018-06-03T02:06:42.685Z,48.92
2018-06-03T02:09:08.687Z,48.92
2018-06-03T02:11:34.693Z,48.92
2018-06-03T02:14:00.686Z,48.90
2018-06-03T02:16:26.689Z,48.90
2018-06-03T02:18:52.680Z,48.90
2018-06-03T02:21:18.677Z,48.89
2018-06-03T02:23:44.674Z,48.90
2018-06-03T02:26:10.671Z,48.89
2018-06-03T02:28:36.665Z,48.89
2018-06-03T02:31:02.666Z,48.89
2018-06-03T02:33:28.663Z,48.87
2018-06-03T02:35:54.665Z,48.88
2018-06-03T02:38:20.663Z,48.87
2018-06-03T02:40:46.679Z,48.88
2018-06-03T02:43:12.724Z,48.87
2018-06-03T02:45:38.720Z,48.87
2018-06-03T02:48:04.719Z,48.87
2018-06-03T02:50:30.801Z,48.86
2018-06-03T02:52:56.813Z,48.86
2018-06-03T02:55:22.806Z,48.86
2018-06-03T02:57:48.792Z,48.85
2018-06-03T03:00:14.788Z,48.85
2018-06-03T03:02:40.780Z,48.85
2018-06-03T03:05:06.780Z,48.84
2018-06-03T03:07:32.774Z,48.84
2018-06-03T03:09:58.776Z,48.84
2018-06-03T03:12:24.781Z,48.84
2018-06-03T03:14:50.776Z,48.84
2018-06-03T03:17:16.773Z,48.82
2018-06-03T03:19:42.770Z,48.82
2018-06-03T03:22:08.761Z,48.83
2018-06-03T03:24:34.763Z,48.83
2018-06-03T03:27:00.804Z,48.82
2018-06-03T03:29:26.798Z,48.81
2018-06-03T03:31:52.794Z,48.80
2018-06-03T03:34:18.788Z,48.80
2018-06-03T03:36:44.789Z,48.80
2018-06-03T03:39:10.790Z,48.79
2018-06-03T03:41:36.814Z,48.79
2018-06-03T03:44:02.854Z,48.79
2018-06-03T03:46:28.852Z,48.79
2018-06-03T03:48:54.864Z,48.79
2018-06-03T03:51:20.857Z,48.79
2018-06-03T03:53:46.860Z,48.78
2018-06-03T03:56:12.898Z,48.78
2018-06-03T03:58:38.896Z,48.77
2018-06-03T04:01:04.899Z,48.77
2018-06-03T04:03:30.891Z,48.78
2018-06-03T04:05:56.896Z,48.78
2018-06-03T04:08:22.899Z,48.83
2018-06-03T04:10:48.906Z,48.82
2018-06-03T04:13:14.942Z,48.74
2018-06-03T04:15:40.893Z,48.74
2018-06-03T04:18:06.897Z,48.82
2018-06-03T04:20:32.899Z,48.81
2018-06-03T04:22:58.941Z,48.83
2018-06-03T04:25:25.020Z,48.79
2018-06-03T04:27:51.096Z,48.79
2018-06-03T04:30:17.093Z,49.07
2018-06-03T04:32:43.097Z,49.23
2018-06-03T04:35:09.411Z,49.21
2018-06-03T04:37:35.401Z,49.25
2018-06-03T04:40:01.403Z,49.31
2018-06-03T04:42:27.401Z,49.28
2018-06-03T04:44:53.400Z,49.31
2018-06-03T04:47:19.476Z,49.34
2018-06-03T04:49:45.641Z,49.32
2018-06-03T04:52:11.746Z,49.30
2018-06-03T04:54:37.747Z,49.25
2018-06-03T04:57:03.742Z,49.23
2018-06-03T04:59:29.738Z,49.24
2018-06-03T05:01:55.739Z,49.20
2018-06-03T05:04:21.745Z,49.19
2018-06-03T05:06:47.768Z,49.17
2018-06-03T05:09:13.772Z,49.21
2018-06-03T05:11:39.765Z,49.26
2018-06-03T05:14:05.763Z,49.37
2018-06-03T05:16:31.762Z,49.39
2018-06-03T05:18:57.757Z,49.34
2018-06-03T05:21:23.787Z,49.39
2018-06-03T05:23:49.781Z,49.40
2018-06-03T05:26:15.778Z,49.36
2018-06-03T05:28:41.783Z,49.36
2018-06-03T05:31:07.809Z,49.41
2018-06-03T05:33:33.870Z,49.12
2018-06-03T05:35:59.905Z,48.83
2018-06-03T05:38:25.917Z,49.34
2018-06-03T05:40:51.912Z,48.94
2018-06-03T05:43:17.920Z,48.93
2018-06-03T05:45:43.921Z,49.05
2018-06-03T05:48:09.914Z,49.10
2018-06-03T05:50:35.905Z,49.02
2018-06-03T05:53:01.905Z,49.06
2018-06-03T05:55:27.916Z,49.03
2018-06-03T05:57:53.921Z,49.07
2018-06-03T06:00:19.959Z,49.09
2018-06-03T06:02:45.936Z,49.12
2018-06-03T06:05:11.938Z,49.13
2018-06-03T06:07:37.934Z,49.13
2018-06-03T06:10:03.936Z,49.13
2018-06-03T06:12:29.937Z,49.20
2018-06-03T06:14:55.939Z,49.14
2018-06-03T06:17:21.938Z,49.06
2018-06-03T06:19:47.944Z,49.22
2018-06-03T06:22:13.948Z,49.13
2018-06-03T06:24:39.955Z,49.07
2018-06-03T06:27:05.989Z,49.28
2018-06-03T06:29:32.026Z,49.39
2018-06-03T06:31:58.021Z,49.42
2018-06-03T06:34:25.038Z,49.10
2018-06-03T06:36:51.003Z,48.60
2018-06-03T06:39:17.009Z,49.04
2018-06-03T06:41:43.035Z,49.44
2018-06-03T06:44:09.027Z,48.57
2018-06-03T06:46:35.028Z,48.53
2018-06-03T06:49:01.067Z,49.36
2018-06-03T06:51:27.080Z,48.65
2018-06-03T06:53:53.077Z,48.68
2018-06-03T06:56:19.120Z,49.08
2018-06-03T06:58:45.123Z,48.55
2018-06-03T07:01:11.126Z,48.73
2018-06-03T07:03:37.121Z,48.44
2018-06-03T07:06:03.122Z,48.34
2018-06-03T07:08:29.149Z,48.66
2018-06-03T07:10:55.149Z,48.64
2018-06-03T07:13:21.128Z,48.35
2018-06-03T07:15:47.111Z,48.50
2018-06-03T07:18:13.129Z,48.27
2018-06-03T07:20:39.123Z,48.60
2018-06-03T07:23:05.161Z,48.66
2018-06-03T07:25:31.135Z,48.74
2018-06-03T07:27:57.112Z,48.62
2018-06-03T07:30:23.109Z,48.70
2018-06-03T07:32:49.092Z,49.12
2018-06-03T07:35:15.107Z,49.13
2018-06-03T07:37:41.104Z,49.16
2018-06-03T07:40:07.088Z,49.25
2018-06-03T07:42:33.067Z,49.27
2018-06-03T07:44:59.109Z,49.41
2018-06-03T07:47:25.042Z,49.47
2018-06-03T07:49:51.028Z,49.63
2018-06-03T07:52:17.008Z,49.67
2018-06-03T07:54:43.005Z,49.71
2018-06-03T07:57:08.990Z,49.72
2018-06-03T07:59:34.982Z,49.68
2018-06-03T08:02:00.993Z,49.76
2018-06-03T08:04:26.978Z,49.73
2018-06-03T08:06:52.953Z,49.75
2018-06-03T08:09:18.936Z,49.81
2018-06-03T08:11:44.925Z,49.83
2018-06-03T08:14:10.942Z,49.83
2018-06-03T08:16:36.960Z,50.00
2018-06-03T08:19:02.936Z,49.96
2018-06-03T08:21:28.914Z,50.03
2018-06-03T08:23:54.984Z,49.98
2018-06-03T08:26:20.974Z,50.04
2018-06-03T08:28:46.960Z,50.21
2018-06-03T08:31:12.938Z,50.24
2018-06-03T08:33:38.963Z,50.63
2018-06-03T08:36:04.970Z,50.14
2018-06-03T08:38:30.956Z,50.86
2018-06-03T08:40:56.944Z,50.86
2018-06-03T08:43:22.952Z,51.08
2018-06-03T08:45:48.934Z,51.04
2018-06-03T08:48:19.151Z,50.93
2018-06-03T08:55:51.183Z,50.70
2018-06-03T08:58:17.186Z,50.67
2018-06-03T09:00:43.163Z,50.42
2018-06-03T09:03:09.255Z,50.55
2018-06-03T09:05:35.247Z,50.51
2018-06-03T09:08:01.228Z,50.42
2018-06-03T09:10:27.240Z,50.35
2018-06-03T09:12:53.218Z,50.17
2018-06-03T09:15:19.205Z,50.13
2018-06-03T09:17:45.224Z,50.23
2018-06-03T09:20:11.210Z,50.14
2018-06-03T09:22:37.193Z,50.07
2018-06-03T09:25:03.313Z,50.02
2018-06-03T09:27:29.289Z,50.02
2018-06-03T09:29:55.283Z,49.96
2018-06-03T09:32:21.274Z,50.08
2018-06-03T09:34:47.250Z,49.92
2018-06-03T09:37:13.243Z,49.88
2018-06-03T09:39:39.220Z,49.93
2018-06-03T09:42:05.235Z,49.92
2018-06-03T09:44:31.236Z,50.07
2018-06-03T09:46:57.216Z,50.10
2018-06-03T09:49:23.195Z,50.09
2018-06-03T09:51:49.188Z,50.24
2018-06-03T09:54:15.168Z,50.38
2018-06-03T09:56:41.181Z,50.50
2018-06-03T09:59:07.163Z,50.20
2018-06-03T10:01:33.146Z,50.84
2018-06-03T10:03:59.122Z,50.93
2018-06-03T10:06:25.112Z,51.00
2018-06-03T10:08:51.090Z,50.92
2018-06-03T10:11:17.182Z,50.99
2018-06-03T10:13:43.165Z,51.08
2018-06-03T10:16:09.201Z,50.85
2018-06-03T10:18:35.176Z,50.88
2018-06-03T10:21:01.165Z,50.95
2018-06-03T10:23:27.144Z,50.62
2018-06-03T10:25:53.127Z,50.98
2018-06-03T10:28:19.106Z,50.95
2018-06-03T10:30:45.083Z,50.82
2018-06-03T10:33:11.070Z,51.06
2018-06-03T10:35:37.078Z,51.10
2018-06-03T10:38:03.077Z,51.39
2018-06-03T10:40:29.053Z,51.38
2018-06-03T10:42:55.043Z,51.43
2018-06-03T10:45:21.032Z,52.03
2018-06-03T10:47:47.019Z,52.02
2018-06-03T10:50:13.011Z,52.46
2018-06-03T10:52:38.991Z,52.85
2018-06-03T10:55:04.989Z,53.32
2018-06-03T10:57:30.984Z,53.28
2018-06-03T10:59:57.062Z,52.02
2018-06-03T11:02:22.984Z,52.88
2018-06-03T11:04:48.963Z,52.77
2018-06-03T11:07:14.946Z,52.64
2018-06-03T11:09:40.931Z,52.46
2018-06-03T11:12:06.907Z,52.25
2018-06-03T11:14:32.888Z,51.95
2018-06-03T11:16:58.867Z,51.78
2018-06-03T11:19:24.852Z,51.28
2018-06-03T11:21:50.831Z,51.33
2018-06-03T11:24:16.818Z,51.47
2018-06-03T11:26:42.806Z,51.24
2018-06-03T11:29:08.812Z,51.42
2018-06-03T11:31:34.841Z,51.66
2018-06-03T11:34:00.785Z,51.83
2018-06-03T11:36:26.766Z,51.64
2018-06-03T11:38:52.748Z,50.96
2018-06-03T11:41:18.774Z,51.78
2018-06-03T11:43:44.800Z,51.74
2018-06-03T11:46:10.783Z,51.79
2018-06-03T11:48:36.773Z,51.91
2018-06-03T11:51:02.754Z,51.93
2018-06-03T11:53:28.754Z,51.62
2018-06-03T11:55:54.867Z,51.93
2018-06-03T11:58:20.900Z,52.07
2018-06-03T12:00:46.921Z,51.54
2018-06-03T12:03:12.868Z,51.49
2018-06-03T12:05:38.854Z,52.22
2018-06-03T12:08:04.844Z,52.57
2018-06-03T12:10:30.822Z,52.18
2018-06-03T12:12:56.831Z,52.29
2018-06-03T12:15:22.820Z,52.63
2018-06-03T12:17:48.790Z,52.58
2018-06-03T12:20:14.786Z,52.40
2018-06-03T12:22:40.813Z,52.21
2018-06-03T12:25:06.834Z,52.40
2018-06-03T12:27:32.816Z,51.26
2018-06-03T12:29:58.801Z,52.17
2018-06-03T12:32:24.778Z,52.21
2018-06-03T12:34:50.773Z,52.09
2018-06-03T12:37:16.761Z,52.31
2018-06-03T12:39:42.737Z,51.66
2018-06-03T12:42:08.819Z,51.96
2018-06-03T12:44:34.821Z,51.99
2018-06-03T12:47:00.817Z,51.83
2018-06-03T12:49:26.806Z,51.44
2018-06-03T12:51:52.799Z,51.80
2018-06-03T12:54:18.833Z,51.72
2018-06-03T12:56:44.841Z,51.55
2018-06-03T12:59:10.819Z,51.53
2018-06-03T13:01:36.807Z,51.39
2018-06-03T13:04:02.786Z,51.29
2018-06-03T13:06:28.780Z,51.13
2018-06-03T13:08:54.742Z,51.14
2018-06-03T13:11:20.721Z,50.91
2018-06-03T13:13:46.708Z,51.28
2018-06-03T13:16:12.688Z,51.31
2018-06-03T13:18:38.670Z,51.33
2018-06-03T13:21:04.658Z,51.14
2018-06-03T13:23:30.657Z,51.31
2018-06-03T13:25:56.648Z,51.08
2018-06-03T13:28:22.649Z,51.28
2018-06-03T13:30:48.646Z,51.38
2018-06-03T13:33:14.628Z,51.47
2018-06-03T13:35:40.621Z,51.54
2018-06-03T13:38:06.610Z,50.77
2018-06-03T13:40:32.601Z,51.31
2018-06-03T13:42:58.583Z,51.45
2018-06-03T13:45:24.570Z,51.37
2018-06-03T13:47:50.560Z,51.48
2018-06-03T13:50:16.542Z,51.24
2018-06-03T13:52:42.528Z,51.63
2018-06-03T13:55:08.517Z,51.56
2018-06-03T13:57:34.509Z,51.67
2018-06-03T14:00:00.490Z,51.61
2018-06-03T14:02:26.507Z,51.53
2018-06-03T14:04:52.496Z,51.62
2018-06-03T14:07:18.475Z,51.59
2018-06-03T14:09:44.462Z,51.60
2018-06-03T14:12:10.452Z,51.12
2018-06-03T14:14:36.437Z,51.05
2018-06-03T14:17:02.428Z,51.09
2018-06-03T14:19:28.531Z,51.43
2018-06-03T14:21:54.492Z,51.18
2018-06-03T14:24:20.480Z,51.45
2018-06-03T14:26:46.479Z,51.15
2018-06-03T14:29:12.456Z,51.14
2018-06-03T14:31:38.479Z,50.91
2018-06-03T14:34:04.488Z,50.84
2018-06-03T14:36:30.470Z,50.74
2018-06-03T14:38:56.445Z,50.64
2018-06-03T14:41:22.427Z,50.58
2018-06-03T14:43:48.441Z,50.52
2018-06-03T14:46:14.394Z,50.52
2018-06-03T14:48:40.372Z,50.81
2018-06-03T14:51:06.415Z,50.97
2018-06-03T14:53:32.345Z,51.05
2018-06-03T14:55:58.336Z,51.20
2018-06-03T14:58:24.265Z,51.43
2018-06-03T15:00:50.267Z,51.46
2018-06-03T15:03:16.249Z,51.62
2018-06-03T15:05:42.235Z,51.05
2018-06-03T15:08:08.244Z,51.64
2018-06-03T15:10:34.296Z,51.67
2018-06-03T15:13:00.281Z,51.83
2018-06-03T15:15:26.263Z,51.95
2018-06-03T15:17:52.294Z,51.91
2018-06-03T15:20:18.374Z,51.78
2018-06-03T15:22:44.316Z,51.95
2018-06-03T15:25:10.303Z,51.84
2018-06-03T15:27:36.328Z,51.82
2018-06-03T15:30:02.323Z,51.56
2018-06-03T15:32:28.431Z,51.98
2018-06-03T15:34:54.422Z,51.64
2018-06-03T15:37:20.421Z,51.69
2018-06-03T15:39:46.482Z,51.98
2018-06-03T15:42:12.476Z,51.68
2018-06-03T15:44:38.463Z,51.80
2018-06-03T15:47:04.455Z,52.07
2018-06-03T15:49:30.473Z,51.98
2018-06-03T15:51:56.542Z,52.11
2018-06-03T15:54:22.629Z,52.31
2018-06-03T15:56:48.625Z,51.95
2018-06-03T15:59:14.649Z,51.65
2018-06-03T16:01:40.606Z,52.26
2018-06-03T16:04:06.603Z,52.11
2018-06-03T16:06:32.606Z,52.33
2018-06-03T16:08:58.617Z,52.56
2018-06-03T16:11:24.623Z,51.96
2018-06-03T16:13:50.629Z,52.46
2018-06-03T16:16:16.627Z,52.29
2018-06-03T16:18:42.620Z,52.28
2018-06-03T16:21:08.597Z,52.53
2018-06-03T16:23:34.588Z,52.50
2018-06-03T16:26:00.669Z,52.29
2018-06-03T16:28:26.632Z,52.45
2018-06-03T16:30:52.624Z,52.57
2018-06-03T16:33:18.666Z,52.38
2018-06-03T16:35:44.761Z,52.35
2018-06-03T16:38:10.881Z,52.55
2018-06-03T16:40:36.870Z,52.55
2018-06-03T16:43:02.850Z,52.35
2018-06-03T16:45:28.835Z,52.49
2018-06-03T16:47:54.828Z,52.59
2018-06-03T16:50:20.810Z,52.64
2018-06-03T16:52:46.796Z,52.53
2018-06-03T16:55:12.836Z,51.84
2018-06-03T16:57:38.858Z,52.23
2018-06-03T17:00:04.918Z,52.36
2018-06-03T17:02:30.918Z,52.64
2018-06-03T17:04:56.919Z,52.33
2018-06-03T17:07:22.945Z,52.47
2018-06-03T17:09:48.939Z,52.24
2018-06-03T17:12:14.930Z,52.50
2018-06-03T17:14:40.954Z,51.72
2018-06-03T17:17:06.936Z,52.29
2018-06-03T17:19:33.095Z,51.49
2018-06-03T17:21:59.088Z,52.47
2018-06-03T17:24:26.581Z,52.47
2018-06-03T17:26:52.839Z,52.59
2018-06-03T17:29:18.843Z,52.56
2018-06-03T17:31:44.866Z,52.53
2018-06-03T17:34:11.050Z,52.74
2018-06-03T17:36:37.092Z,52.72
2018-06-03T17:39:03.069Z,52.45
2018-06-03T17:41:29.150Z,52.39
2018-06-03T17:43:55.147Z,52.19
2018-06-03T17:46:21.154Z,52.69
2018-06-03T17:48:49.374Z,52.58
2018-06-03T17:51:13.199Z,52.53
2018-06-03T17:53:39.551Z,52.53
2018-06-03T17:56:05.557Z,52.40
2018-06-03T17:58:31.593Z,52.33
2018-06-03T18:00:57.575Z,51.97
2018-06-03T18:03:23.581Z,52.42
2018-06-03T18:05:49.554Z,52.49
2018-06-03T18:08:15.558Z,52.36
2018-06-03T18:10:41.589Z,52.45
2018-06-03T18:13:07.611Z,52.04
2018-06-03T18:15:33.612Z,52.56
2018-06-03T18:17:59.610Z,52.44
2018-06-03T18:20:25.608Z,52.06
2018-06-03T18:22:51.645Z,52.51
2018-06-03T18:25:17.862Z,52.66
2018-06-03T18:27:43.816Z,52.68
2018-06-03T18:30:09.840Z,52.66
2018-06-03T18:32:35.822Z,52.59
2018-06-03T18:35:01.840Z,52.64
2018-06-03T18:37:27.833Z,52.59
2018-06-03T18:39:53.811Z,52.63
2018-06-03T18:42:19.834Z,52.16
2018-06-03T18:44:46.166Z,52.81
2018-06-03T18:47:12.473Z,52.75
2018-06-03T18:49:38.840Z,52.74
2018-06-03T18:52:07.721Z,52.73
2018-06-03T18:54:33.898Z,52.80
2018-06-03T18:57:00.025Z,52.69
2018-06-03T18:59:26.158Z,52.92
2018-06-03T19:01:52.000Z,53.47
2018-06-03T19:04:18.516Z,53.17
2018-06-03T19:06:44.466Z,53.06
2018-06-03T19:09:14.520Z,53.32
2018-06-03T19:11:40.662Z,53.17
2018-06-03T19:14:07.278Z,53.26
2018-06-03T19:16:33.287Z,53.11
2018-06-03T19:18:59.321Z,53.13
2018-06-03T19:21:25.346Z,52.99
2018-06-03T19:23:52.243Z,52.92
2018-06-03T19:26:18.343Z,53.04
2018-06-03T19:28:44.384Z,53.10
2018-06-03T19:31:13.060Z,52.89
2018-06-03T19:33:39.070Z,53.10
2018-06-03T19:36:05.138Z,53.06
2018-06-03T19:38:31.175Z,52.94
2018-06-03T19:40:57.911Z,52.89
2018-06-03T19:43:23.897Z,52.97
2018-06-03T19:45:49.886Z,52.67
2018-06-03T19:48:15.871Z,52.94
2018-06-03T19:50:42.095Z,52.90
2018-06-03T19:53:08.592Z,53.00
2018-06-03T19:55:34.581Z,52.42
2018-06-03T19:58:00.561Z,52.83
2018-06-03T20:00:26.543Z,52.76
2018-06-03T20:02:52.526Z,52.67
2018-06-03T20:05:18.514Z,52.76
2018-06-03T20:07:44.526Z,52.69
2018-06-03T20:10:10.583Z,52.73
2018-06-03T20:12:36.577Z,52.66
2018-06-03T20:15:02.544Z,52.60
2018-06-03T20:17:28.709Z,52.11
2018-06-03T20:19:54.695Z,52.54
2018-06-03T20:22:20.801Z,52.58
2018-06-03T20:24:47.105Z,52.58
2018-06-03T20:27:13.118Z,52.75
2018-06-03T20:29:39.158Z,52.58
2018-06-03T20:32:05.153Z,52.69
2018-06-03T20:34:31.199Z,52.74
2018-06-03T20:36:57.179Z,52.69
2018-06-03T20:39:23.175Z,52.49
2018-06-03T20:41:49.175Z,52.54
2018-06-03T20:44:15.165Z,52.60
2018-06-03T20:46:41.253Z,52.61
2018-06-03T20:49:07.337Z,52.60
2018-06-03T20:51:33.285Z,52.52
2018-06-03T20:53:59.263Z,52.54
2018-06-03T20:56:25.249Z,52.53
2018-06-03T20:58:51.231Z,52.36
2018-06-03T21:01:17.217Z,52.29
2018-06-03T21:03:43.211Z,52.28
2018-06-03T21:06:09.195Z,52.21
2018-06-03T21:08:35.175Z,52.20
2018-06-03T21:11:01.165Z,52.16
2018-06-03T21:13:27.147Z,52.08
2018-06-03T21:15:53.126Z,52.09
2018-06-03T21:18:19.112Z,52.06
2018-06-03T21:20:45.096Z,51.95
2018-06-03T21:23:11.084Z,51.98
2018-06-03T21:25:37.097Z,51.92
2018-06-03T21:28:03.081Z,51.85
2018-06-03T21:30:29.065Z,51.89
2018-06-03T21:32:55.050Z,51.88
2018-06-03T21:35:21.030Z,51.86
2018-06-03T21:37:47.017Z,51.84
2018-06-03T21:40:13.003Z,51.81
2018-06-03T21:42:38.994Z,51.81
2018-06-03T21:45:04.964Z,51.77
2018-06-03T21:47:30.942Z,51.71
2018-06-03T21:49:56.928Z,51.67
2018-06-03T21:52:22.911Z,51.65
2018-06-03T21:54:48.894Z,51.59
2018-06-03T21:57:14.880Z,51.53
2018-06-03T21:59:40.863Z,51.50
2018-06-03T22:02:06.856Z,51.57
2018-06-03T22:04:32.834Z,51.58
2018-06-03T22:06:58.825Z,51.47
2018-06-03T22:09:24.813Z,51.47
2018-06-03T22:11:50.794Z,51.47
2018-06-03T22:14:16.780Z,51.45
2018-06-03T22:16:42.798Z,51.43
2018-06-03T22:19:08.784Z,51.39
2018-06-03T22:21:34.754Z,51.41
2018-06-03T22:24:00.747Z,51.42
2018-06-03T22:26:26.734Z,51.33
2018-06-03T22:28:52.721Z,51.37
2018-06-03T22:31:18.709Z,51.31
2018-06-03T22:33:44.689Z,51.33
2018-06-03T22:36:10.663Z,51.29
2018-06-03T22:38:36.653Z,51.25
2018-06-03T22:41:02.689Z,51.25
2018-06-03T22:43:28.661Z,51.24
2018-06-03T22:45:54.670Z,51.21
2018-06-03T22:48:20.653Z,51.22
2018-06-03T22:50:46.643Z,51.21
2018-06-03T22:53:12.623Z,51.26
2018-06-03T22:55:38.616Z,51.15
2018-06-03T22:58:04.600Z,51.10
2018-06-03T23:00:30.590Z,51.09
2018-06-03T23:02:56.613Z,51.07
2018-06-03T23:05:22.647Z,51.05
2018-06-03T23:07:48.598Z,51.05
2018-06-03T23:10:14.584Z,51.04
2018-06-03T23:12:40.573Z,51.01
2018-06-03T23:15:06.654Z,50.97
2018-06-03T23:17:32.650Z,50.98
2018-06-03T23:19:58.629Z,50.98
2018-06-03T23:22:24.621Z,50.96
2018-06-03T23:24:50.604Z,50.94
2018-06-03T23:32:26.821Z,50.89
2018-06-03T23:47:51.837Z,50.94
2018-06-03T23:50:17.829Z,50.83
2018-06-03T23:52:43.810Z,50.77
2018-06-03T23:55:09.816Z,50.75
2018-06-03T23:57:35.795Z,50.73
